createdAt,value
2022-09-30T00:01:50.891Z,41.41
2022-09-30T00:04:24.297Z,41.48
2022-09-30T00:06:52.982Z,41.21
2022-09-30T00:09:21.854Z,41.41
2022-09-30T00:11:49.851Z,41.59
2022-09-30T00:14:20.625Z,41.43
2022-09-30T00:16:49.055Z,41.44
2022-09-30T00:19:17.197Z,41.64
2022-09-30T00:21:45.969Z,41.20
2022-09-30T00:24:13.856Z,41.18
2022-09-30T00:26:41.533Z,41.25
2022-09-30T00:29:11.276Z,41.37
2022-09-30T00:31:39.448Z,41.06
2022-09-30T00:34:07.769Z,41.41
2022-09-30T00:36:46.206Z,41.27
2022-09-30T00:39:21.486Z,41.18
2022-09-30T00:41:52.227Z,41.28
2022-09-30T00:44:42.771Z,41.05
2022-09-30T00:47:21.739Z,41.17
2022-09-30T00:49:50.152Z,41.36
2022-09-30T00:52:18.528Z,41.53
2022-09-30T00:54:46.350Z,41.48
2022-09-30T00:57:14.183Z,41.44
2022-09-30T00:59:47.264Z,41.32
2022-09-30T01:02:15.058Z,41.32
2022-09-30T01:04:44.820Z,41.17
2022-09-30T01:07:15.747Z,41.71
2022-09-30T01:09:44.607Z,41.48
2022-09-30T01:12:21.193Z,41.41
2022-09-30T01:14:53.333Z,41.21
2022-09-30T01:17:44.829Z,41.32
2022-09-30T01:20:18.524Z,41.12
2022-09-30T01:23:07.256Z,40.96
2022-09-30T01:26:02.473Z,41.03
2022-09-30T01:28:42.323Z,40.95
2022-09-30T01:32:04.017Z,40.55
2022-09-30T01:35:07.300Z,40.22
2022-09-30T01:37:50.491Z,40.28
2022-09-30T01:40:36.101Z,40.36
2022-09-30T01:43:32.286Z,39.64
2022-09-30T01:46:05.654Z,39.83
2022-09-30T01:48:41.014Z,39.76
2022-09-30T01:51:23.338Z,39.74
2022-09-30T01:54:00.006Z,39.71
2022-09-30T01:56:44.121Z,39.64
2022-09-30T01:59:21.380Z,39.34
2022-09-30T02:02:25.547Z,39.37
2022-09-30T02:05:02.932Z,39.19
2022-09-30T02:07:41.824Z,39.18
2022-09-30T02:10:38.617Z,38.81
2022-09-30T02:13:21.193Z,38.91
2022-09-30T02:15:55.866Z,38.98
2022-09-30T02:18:39.365Z,38.92
2022-09-30T02:21:09.011Z,38.82
2022-09-30T02:23:42.654Z,38.60
2022-09-30T02:26:25.145Z,38.33
2022-09-30T02:29:13.498Z,38.70
2022-09-30T02:31:45.073Z,38.81
2022-09-30T02:34:16.681Z,39.21
2022-09-30T02:36:52.071Z,38.86
2022-09-30T02:39:42.778Z,38.96
2022-09-30T02:42:34.512Z,38.68
2022-09-30T02:45:08.724Z,38.89
2022-09-30T02:47:58.415Z,38.48
2022-09-30T02:50:43.449Z,38.49
2022-09-30T02:53:33.410Z,38.53
2022-09-30T02:56:13.412Z,38.71
2022-09-30T02:58:43.436Z,38.63
2022-09-30T03:01:14.487Z,38.42
2022-09-30T03:03:57.049Z,38.14
2022-09-30T03:06:25.393Z,38.30
2022-09-30T03:08:53.467Z,37.92
2022-09-30T03:11:25.241Z,37.74
2022-09-30T03:14:24.923Z,37.94
2022-09-30T03:17:17.511Z,37.70
2022-09-30T03:19:54.543Z,37.82
2022-09-30T03:22:51.305Z,37.83
2022-09-30T03:25:43.769Z,37.63
2022-09-30T03:28:26.929Z,37.96
2022-09-30T03:31:04.620Z,38.16
2022-09-30T03:34:10.695Z,37.94
2022-09-30T03:36:51.357Z,38.55
2022-09-30T03:39:28.111Z,38.53
2022-09-30T03:42:10.868Z,38.80
2022-09-30T03:44:54.425Z,39.00
2022-09-30T03:47:25.288Z,38.91
2022-09-30T03:50:00.382Z,38.99
2022-09-30T03:52:31.259Z,39.14
2022-09-30T03:55:02.801Z,39.02
2022-09-30T03:57:31.158Z,38.99
2022-09-30T03:59:59.808Z,39.10
2022-09-30T04:02:28.186Z,38.94
2022-09-30T04:04:56.563Z,38.96
2022-09-30T04:07:24.387Z,38.74
2022-09-30T04:09:52.139Z,39.17
2022-09-30T04:12:20.152Z,39.17
2022-09-30T04:14:47.960Z,38.84
2022-09-30T04:17:15.591Z,38.86
2022-09-30T04:19:43.224Z,38.82
2022-09-30T04:22:11.017Z,38.54
2022-09-30T04:24:39.689Z,38.83
2022-09-30T04:27:07.510Z,38.64
2022-09-30T04:29:35.147Z,38.85
2022-09-30T04:32:03.014Z,38.56
2022-09-30T04:34:31.401Z,38.95
2022-09-30T04:36:59.088Z,38.50
2022-09-30T04:39:26.934Z,39.17
2022-09-30T04:41:54.581Z,39.00
2022-09-30T04:44:22.785Z,38.83
2022-09-30T04:46:51.446Z,39.14
2022-09-30T04:49:19.193Z,38.96
2022-09-30T04:51:46.991Z,38.73
2022-09-30T04:54:16.577Z,39.39
2022-09-30T04:56:44.252Z,39.18
2022-09-30T04:59:12.069Z,39.00
2022-09-30T05:01:40.649Z,38.93
2022-09-30T05:04:08.534Z,38.63
2022-09-30T05:06:36.416Z,39.03
2022-09-30T05:09:04.095Z,39.23
2022-09-30T05:11:31.767Z,38.93
2022-09-30T05:13:59.316Z,39.11
2022-09-30T05:16:28.138Z,39.58
2022-09-30T05:18:55.920Z,40.09
2022-09-30T05:21:23.876Z,39.22
2022-09-30T05:23:53.999Z,39.14
2022-09-30T05:26:21.787Z,39.32
2022-09-30T05:28:49.472Z,38.99
2022-09-30T05:31:17.331Z,38.48
2022-09-30T05:33:46.290Z,38.11
2022-09-30T05:36:16.362Z,38.36
2022-09-30T05:38:44.165Z,38.27
2022-09-30T05:41:13.915Z,38.49
2022-09-30T05:43:45.419Z,38.40
2022-09-30T05:46:13.270Z,38.76
2022-09-30T05:48:41.095Z,38.58
2022-09-30T05:51:09.612Z,38.21
2022-09-30T05:53:39.387Z,38.45
2022-09-30T05:56:10.289Z,38.19
2022-09-30T05:58:40.782Z,38.21
2022-09-30T06:01:13.732Z,37.86
2022-09-30T06:03:45.882Z,37.93
2022-09-30T06:06:15.292Z,38.12
2022-09-30T06:08:43.853Z,38.14
2022-09-30T06:11:14.266Z,38.40
2022-09-30T06:13:42.961Z,39.04
2022-09-30T06:16:12.293Z,38.46
2022-09-30T06:18:41.604Z,38.47
2022-09-30T06:21:14.643Z,38.09
2022-09-30T06:23:43.304Z,38.11
2022-09-30T06:26:13.537Z,38.32
2022-09-30T06:28:42.344Z,38.28
2022-09-30T06:31:10.464Z,38.35
2022-09-30T06:33:38.319Z,38.71
2022-09-30T06:36:07.165Z,38.34
2022-09-30T06:38:40.063Z,38.59
2022-09-30T06:41:08.590Z,38.81
2022-09-30T06:43:41.618Z,37.76
2022-09-30T06:46:25.175Z,37.82
2022-09-30T06:49:14.564Z,37.97
2022-09-30T06:51:42.984Z,38.19
2022-09-30T06:54:11.001Z,37.75
2022-09-30T06:56:38.764Z,37.86
2022-09-30T06:59:07.141Z,37.58
2022-09-30T07:01:34.946Z,37.56
2022-09-30T07:04:08.191Z,37.18
2022-09-30T07:06:35.798Z,37.38
2022-09-30T07:09:03.640Z,44.17
2022-09-30T07:11:31.311Z,39.38
2022-09-30T07:13:59.021Z,39.27
2022-09-30T07:16:26.886Z,39.35
2022-09-30T07:18:54.827Z,38.47
2022-09-30T07:21:22.355Z,38.28
2022-09-30T07:23:51.083Z,37.86
2022-09-30T07:26:22.238Z,37.17
2022-09-30T07:28:50.470Z,37.58
2022-09-30T07:31:38.949Z,37.47
2022-09-30T07:34:08.663Z,37.81
2022-09-30T07:36:38.349Z,37.67
2022-09-30T07:39:09.880Z,38.33
2022-09-30T07:41:39.645Z,37.65
2022-09-30T07:44:12.089Z,38.17
2022-09-30T07:46:40.710Z,37.90
2022-09-30T07:49:13.618Z,37.90
2022-09-30T07:51:45.315Z,38.03
2022-09-30T07:54:18.588Z,37.75
2022-09-30T07:59:38.045Z,38.01
2022-09-30T08:02:07.042Z,37.71
2022-09-30T08:04:37.211Z,38.13
2022-09-30T08:07:06.893Z,38.45
2022-09-30T08:09:35.105Z,37.35
2022-09-30T08:12:04.825Z,37.35
2022-09-30T08:14:32.830Z,37.17
2022-09-30T08:17:00.968Z,37.16
2022-09-30T08:19:30.705Z,36.98
2022-09-30T08:21:58.882Z,36.74
2022-09-30T08:24:27.444Z,36.64
2022-09-30T08:26:56.074Z,37.11
2022-09-30T08:32:11.534Z,37.11
2022-09-30T08:34:39.134Z,37.37
2022-09-30T08:37:09.559Z,37.12
2022-09-30T08:39:40.615Z,37.24
2022-09-30T08:42:39.375Z,36.66
2022-09-30T08:45:43.184Z,37.11
2022-09-30T08:51:21.227Z,37.06
2022-09-30T08:53:49.869Z,37.14
2022-09-30T08:56:27.664Z,37.63
2022-09-30T08:59:27.305Z,37.59
2022-09-30T09:02:29.186Z,37.37
2022-09-30T09:05:03.483Z,37.81
2022-09-30T09:07:34.003Z,37.66
2022-09-30T09:10:32.111Z,37.76
2022-09-30T09:13:44.537Z,37.94
2022-09-30T09:16:21.409Z,37.47
2022-09-30T09:18:58.861Z,37.60
2022-09-30T09:21:36.589Z,37.80
2022-09-30T09:24:11.499Z,37.72
2022-09-30T09:26:39.137Z,37.66
2022-09-30T09:29:12.284Z,37.64
2022-09-30T09:31:39.979Z,37.83
2022-09-30T09:34:12.413Z,37.78
2022-09-30T09:36:49.027Z,37.70
2022-09-30T09:40:11.890Z,37.89
2022-09-30T09:42:42.859Z,37.43
2022-09-30T09:45:37.085Z,37.64
2022-09-30T09:48:13.825Z,37.19
2022-09-30T09:51:20.487Z,37.46
2022-09-30T09:54:01.669Z,37.18
2022-09-30T09:56:32.745Z,37.95
2022-09-30T09:59:20.183Z,37.80
2022-09-30T10:01:55.390Z,37.38
2022-09-30T10:04:28.100Z,37.24
2022-09-30T10:07:23.024Z,37.23
2022-09-30T10:10:07.220Z,36.65
2022-09-30T10:12:35.688Z,37.06
2022-09-30T10:15:15.814Z,36.64
2022-09-30T10:17:43.507Z,37.01
2022-09-30T10:20:24.642Z,36.02
2022-09-30T10:23:01.847Z,35.76
2022-09-30T10:25:29.918Z,36.10
2022-09-30T10:28:00.345Z,35.94
2022-09-30T10:30:36.091Z,36.04
2022-09-30T10:33:11.185Z,36.39
2022-09-30T10:35:52.437Z,36.31
2022-09-30T10:38:20.600Z,36.30
2022-09-30T10:40:51.821Z,36.30
2022-09-30T10:43:24.055Z,35.73
2022-09-30T10:46:13.762Z,35.68
2022-09-30T10:48:41.650Z,35.22
2022-09-30T10:51:24.530Z,34.99
2022-09-30T10:53:52.400Z,35.54
2022-09-30T10:56:41.198Z,33.69
2022-09-30T10:59:44.286Z,33.93
2022-09-30T11:05:18.072Z,33.55
2022-09-30T11:08:03.889Z,33.92
2022-09-30T11:10:31.513Z,34.15
2022-09-30T11:13:07.428Z,34.32
2022-09-30T11:15:48.623Z,34.26
2022-09-30T11:18:23.123Z,34.26
2022-09-30T11:21:00.686Z,34.35
2022-09-30T11:23:46.543Z,34.21
2022-09-30T11:26:20.400Z,33.92
2022-09-30T11:29:02.323Z,33.54
2022-09-30T11:31:56.658Z,33.75
2022-09-30T11:34:27.169Z,33.91
2022-09-30T11:37:11.047Z,34.09
2022-09-30T11:40:01.810Z,34.40
2022-09-30T11:42:44.669Z,34.60
2022-09-30T11:45:37.087Z,34.27
2022-09-30T11:48:32.941Z,34.31
2022-09-30T11:51:09.760Z,34.52
2022-09-30T11:53:44.501Z,34.72
2022-09-30T11:56:38.361Z,34.90
2022-09-30T11:59:17.093Z,35.45
2022-09-30T12:01:48.297Z,36.02
2022-09-30T12:04:33.015Z,36.29
2022-09-30T12:07:07.312Z,36.02
2022-09-30T12:09:44.153Z,36.41
2022-09-30T12:12:16.738Z,36.36
2022-09-30T12:14:50.240Z,36.08
2022-09-30T12:17:39.029Z,35.85
2022-09-30T12:20:18.971Z,36.09
2022-09-30T12:22:48.031Z,36.38
2022-09-30T12:25:24.752Z,36.85
2022-09-30T12:28:39.624Z,36.55
2022-09-30T12:31:23.985Z,36.79
2022-09-30T12:34:04.085Z,36.68
2022-09-30T12:37:02.638Z,36.52
2022-09-30T12:39:30.272Z,36.78
2022-09-30T12:42:12.428Z,36.62
2022-09-30T12:44:46.226Z,36.96
2022-09-30T12:47:28.299Z,37.00
2022-09-30T12:49:59.080Z,36.92
2022-09-30T12:52:34.065Z,36.63
2022-09-30T12:55:08.861Z,36.65
2022-09-30T12:57:41.859Z,36.41
2022-09-30T13:00:22.136Z,36.22
2022-09-30T13:03:00.008Z,35.98
2022-09-30T13:05:46.923Z,35.67
2022-09-30T13:08:25.125Z,35.71
2022-09-30T13:10:59.412Z,35.54
2022-09-30T13:13:32.347Z,35.76
2022-09-30T13:16:04.473Z,35.70
2022-09-30T13:18:32.088Z,36.01
2022-09-30T13:21:05.818Z,35.60
2022-09-30T13:23:39.524Z,35.46
2022-09-30T13:26:34.994Z,35.61
2022-09-30T13:29:02.807Z,35.71
2022-09-30T13:31:53.667Z,35.13
2022-09-30T13:34:28.546Z,35.08
2022-09-30T13:37:06.278Z,35.08
2022-09-30T13:39:53.741Z,34.80
2022-09-30T13:42:24.805Z,34.69
2022-09-30T13:44:59.612Z,34.60
2022-09-30T13:47:53.347Z,34.54
2022-09-30T13:51:00.053Z,34.63
2022-09-30T13:53:34.021Z,34.40
2022-09-30T13:56:20.599Z,34.53
2022-09-30T13:59:15.255Z,34.13
2022-09-30T14:02:00.122Z,34.05
2022-09-30T14:04:49.731Z,34.47
2022-09-30T14:07:47.297Z,34.51
2022-09-30T14:10:22.161Z,34.77
2022-09-30T14:13:00.726Z,34.88
2022-09-30T14:15:57.516Z,34.92
2022-09-30T14:18:50.078Z,35.19
2022-09-30T14:21:35.345Z,34.96
2022-09-30T14:24:21.805Z,35.25
2022-09-30T14:26:55.236Z,35.77
2022-09-30T14:29:42.583Z,35.43
2022-09-30T14:32:18.864Z,35.62
2022-09-30T14:34:49.144Z,35.49
2022-09-30T14:37:28.038Z,35.17
2022-09-30T14:39:57.281Z,35.00
2022-09-30T14:42:38.810Z,34.86
2022-09-30T14:45:07.870Z,34.85
2022-09-30T14:47:40.560Z,34.64
2022-09-30T14:50:17.710Z,33.97
2022-09-30T14:52:48.271Z,34.03
2022-09-30T14:55:27.103Z,33.88
2022-09-30T14:58:23.393Z,34.39
2022-09-30T15:00:58.330Z,34.82
2022-09-30T15:03:28.609Z,35.44
2022-09-30T15:05:58.170Z,35.63
2022-09-30T15:08:26.093Z,36.04
2022-09-30T15:10:56.095Z,36.12
2022-09-30T15:13:29.747Z,36.12
2022-09-30T15:15:58.112Z,35.91
2022-09-30T15:18:37.235Z,36.68
2022-09-30T15:21:09.983Z,36.94
2022-09-30T15:23:41.461Z,37.17
2022-09-30T15:26:12.502Z,37.91
2022-09-30T15:28:40.639Z,37.83
2022-09-30T15:31:34.302Z,38.18
2022-09-30T15:34:13.827Z,38.59
2022-09-30T15:36:41.481Z,38.28
2022-09-30T15:39:23.622Z,38.51
2022-09-30T15:41:52.086Z,38.15
2022-09-30T15:44:38.108Z,38.48
2022-09-30T15:47:09.570Z,38.31
2022-09-30T15:49:41.008Z,38.89
2022-09-30T15:52:45.626Z,39.12
2022-09-30T15:55:42.825Z,39.35
2022-09-30T15:58:33.514Z,39.74
2022-09-30T16:01:25.111Z,39.81
2022-09-30T16:04:07.697Z,40.56
2022-09-30T16:06:38.167Z,40.20
2022-09-30T16:09:21.167Z,41.34
2022-09-30T16:12:12.051Z,41.43
2022-09-30T16:14:58.602Z,41.34
2022-09-30T16:17:26.406Z,42.72
2022-09-30T16:19:59.408Z,42.93
2022-09-30T16:22:36.284Z,43.56
2022-09-30T16:25:11.909Z,43.63
2022-09-30T16:27:39.732Z,43.76
2022-09-30T16:30:08.072Z,43.49
2022-09-30T16:32:39.033Z,43.78
2022-09-30T16:35:13.635Z,43.82
2022-09-30T16:37:43.190Z,43.70
2022-09-30T16:40:25.704Z,43.90
2022-09-30T16:42:58.819Z,43.46
2022-09-30T16:45:28.900Z,42.73
2022-09-30T16:48:01.567Z,43.06
2022-09-30T16:50:40.607Z,42.73
2022-09-30T16:53:10.725Z,42.73
2022-09-30T16:55:38.986Z,42.59
2022-09-30T16:58:06.807Z,42.21
2022-09-30T17:00:34.739Z,42.27
2022-09-30T17:03:02.508Z,41.89
2022-09-30T17:05:30.269Z,41.67
2022-09-30T17:08:01.738Z,41.69
2022-09-30T17:10:35.382Z,42.01
2022-09-30T17:13:03.864Z,41.95
2022-09-30T17:15:33.408Z,41.92
2022-09-30T17:18:07.568Z,42.12
2022-09-30T17:20:37.032Z,42.05
2022-09-30T17:23:07.303Z,42.55
2022-09-30T17:25:41.232Z,42.79
2022-09-30T17:28:11.045Z,42.63
2022-09-30T17:30:40.281Z,42.75
2022-09-30T17:33:10.110Z,42.85
2022-09-30T17:35:41.403Z,42.94
2022-09-30T17:38:10.918Z,43.17
2022-09-30T17:40:57.968Z,42.92
2022-09-30T17:43:25.599Z,43.64
2022-09-30T17:45:56.116Z,42.98
2022-09-30T17:48:24.731Z,43.29
2022-09-30T17:50:56.025Z,43.40
2022-09-30T17:53:24.135Z,43.30
2022-09-30T17:56:20.077Z,43.30
2022-09-30T17:58:50.669Z,42.96
2022-09-30T18:01:20.895Z,42.91
2022-09-30T18:03:53.167Z,43.17
2022-09-30T18:06:21.059Z,43.54
2022-09-30T18:08:50.191Z,43.51
2022-09-30T18:11:23.384Z,43.52
2022-09-30T18:14:02.053Z,43.32
2022-09-30T18:16:33.797Z,43.40
2022-09-30T18:19:04.463Z,43.46
2022-09-30T18:21:34.466Z,43.40
2022-09-30T18:24:02.722Z,43.80
2022-09-30T18:26:33.544Z,44.04
2022-09-30T18:29:05.398Z,43.63
2022-09-30T18:31:37.245Z,43.32
2022-09-30T18:34:06.623Z,43.20
2022-09-30T18:36:35.447Z,43.07
2022-09-30T18:39:03.358Z,43.19
2022-09-30T18:41:34.468Z,43.21
2022-09-30T18:44:03.391Z,43.20
2022-09-30T18:46:32.390Z,43.23
2022-09-30T18:49:00.052Z,44.00
2022-09-30T18:51:28.650Z,44.07
2022-09-30T18:53:59.044Z,43.71
2022-09-30T18:56:32.249Z,44.04
2022-09-30T18:59:04.743Z,43.95
2022-09-30T19:01:34.319Z,44.17
2022-09-30T19:04:03.946Z,44.35
2022-09-30T19:06:32.177Z,44.10
2022-09-30T19:08:59.780Z,44.42
2022-09-30T19:11:28.129Z,44.44
2022-09-30T19:13:59.133Z,45.64
2022-09-30T19:16:28.334Z,45.10
2022-09-30T19:19:01.372Z,45.08
2022-09-30T19:21:28.966Z,45.59
2022-09-30T19:23:58.272Z,45.36
2022-09-30T19:26:30.525Z,45.46
2022-09-30T19:28:58.391Z,45.14
2022-09-30T19:31:26.318Z,44.99
2022-09-30T19:33:57.060Z,45.33
2022-09-30T19:36:27.174Z,45.05
2022-09-30T19:39:10.416Z,45.17
2022-09-30T19:41:39.945Z,45.01
2022-09-30T19:44:07.638Z,45.03
2022-09-30T19:46:35.387Z,45.04
2022-09-30T19:49:03.141Z,45.04
2022-09-30T19:51:33.185Z,44.72
2022-09-30T19:54:06.929Z,44.55
2022-09-30T19:56:38.469Z,44.64
2022-09-30T19:59:06.169Z,44.70
2022-09-30T20:01:35.197Z,45.21
2022-09-30T20:04:05.430Z,44.92
2022-09-30T20:06:34.560Z,45.18
2022-09-30T20:09:05.875Z,45.12
2022-09-30T20:11:37.016Z,45.37
2022-09-30T20:14:25.754Z,45.44
2022-09-30T20:16:54.725Z,45.25
2022-09-30T20:19:23.196Z,45.74
2022-09-30T20:21:54.069Z,45.38
2022-09-30T20:24:21.928Z,45.25
2022-09-30T20:26:50.424Z,45.61
2022-09-30T20:29:19.899Z,45.60
2022-09-30T20:31:48.331Z,45.67
2022-09-30T20:34:17.587Z,45.72
2022-09-30T20:36:45.461Z,45.66
2022-09-30T20:39:15.290Z,46.13
2022-09-30T20:41:43.053Z,45.53
2022-09-30T20:44:14.545Z,45.41
2022-09-30T20:46:43.290Z,45.10
2022-09-30T20:49:11.100Z,45.09
2022-09-30T20:51:38.818Z,44.62
2022-09-30T20:54:06.680Z,44.71
2022-09-30T20:56:55.634Z,44.41
2022-09-30T20:59:23.279Z,45.10
2022-09-30T21:01:52.013Z,44.92
2022-09-30T21:04:19.814Z,44.73
2022-09-30T21:06:47.878Z,44.95
2022-09-30T21:09:15.669Z,44.92
2022-09-30T21:11:43.319Z,44.71
2022-09-30T21:14:11.296Z,44.50
2022-09-30T21:16:39.054Z,44.01
2022-09-30T21:19:06.754Z,43.88
2022-09-30T21:21:35.018Z,44.29
2022-09-30T21:24:03.093Z,44.41
2022-09-30T21:26:30.736Z,44.88
2022-09-30T21:29:00.272Z,43.78
2022-09-30T21:31:28.684Z,44.37
2022-09-30T21:34:01.530Z,44.45
2022-09-30T21:36:29.771Z,43.89
2022-09-30T21:39:03.696Z,43.26
2022-09-30T21:41:32.822Z,43.55
2022-09-30T21:44:01.477Z,43.25
2022-09-30T21:46:29.678Z,42.95
2022-09-30T21:49:15.984Z,42.85
2022-09-30T21:51:43.749Z,43.25
2022-09-30T21:54:13.504Z,43.05
2022-09-30T21:56:42.888Z,43.37
2022-09-30T21:59:11.779Z,43.35
2022-09-30T22:01:39.804Z,43.17
2022-09-30T22:04:08.130Z,43.25
2022-09-30T22:06:35.825Z,43.37
2022-09-30T22:09:05.371Z,43.38
2022-09-30T22:11:33.396Z,43.42
2022-09-30T22:14:01.648Z,43.39
2022-09-30T22:16:34.930Z,43.64
2022-09-30T22:19:07.422Z,43.77
2022-09-30T22:21:37.394Z,43.63
2022-09-30T22:24:09.141Z,43.64
2022-09-30T22:26:37.393Z,43.64
2022-09-30T22:29:11.105Z,43.49
2022-09-30T22:31:39.857Z,43.52
2022-09-30T22:34:26.668Z,43.74
2022-09-30T22:37:13.039Z,43.66
2022-09-30T22:39:40.744Z,43.60
2022-09-30T22:42:08.339Z,43.71
2022-09-30T22:44:37.779Z,44.05
2022-09-30T22:47:09.330Z,43.87
2022-09-30T22:49:37.095Z,43.66
2022-09-30T22:52:06.229Z,43.74
2022-09-30T22:54:35.830Z,44.08
2022-09-30T22:57:04.637Z,43.97
2022-09-30T22:59:32.203Z,44.36
2022-09-30T23:01:59.901Z,43.72
2022-09-30T23:04:31.780Z,43.89
2022-09-30T23:06:59.707Z,43.50
2022-09-30T23:09:27.815Z,43.72
2022-09-30T23:11:57.135Z,43.60
2022-09-30T23:14:25.130Z,43.48
2022-09-30T23:16:52.941Z,43.72
2022-09-30T23:19:20.979Z,43.79
2022-09-30T23:21:48.807Z,43.82
2022-09-30T23:24:16.477Z,43.56
2022-09-30T23:26:44.300Z,43.67
2022-09-30T23:29:13.705Z,43.50
2022-09-30T23:31:42.064Z,43.48
2022-09-30T23:34:09.872Z,43.84
2022-09-30T23:36:38.363Z,43.66
2022-09-30T23:39:18.758Z,43.86
2022-09-30T23:41:47.719Z,43.82
2022-09-30T23:44:19.082Z,43.55
2022-09-30T23:47:14.533Z,43.95
2022-09-30T23:49:43.276Z,43.67
2022-09-30T23:52:13.222Z,43.87
2022-09-30T23:54:44.423Z,43.70
2022-09-30T23:57:12.208Z,43.93
2022-09-30T23:59:40.076Z,43.85
